Chimes, Arkansas
Current Conditions -  °F | °C
As of 3:35 PM on Saturday 25 Oct 2014 (Local Time) from KFLP Reporting Station
Clear Clear  
Wind Chill: 84°   Ceiling: Unl
Heat Index: 85°   Visibility: 8mi
Dew Point: 63°   Wind: 6mph
Humidity: 48%   Direction: 40°NE
Pressure: 30.03"   Gusts: NA
Location:  35.8223°N, 92.5849°W
Report Text: KFLP 252035Z AUTO 04005KT 8SM CLR 29/17 A3003 RMK AO1
Loading
Personal Weather Stations






























Interactive Weather Map
Tropical Storm Tracking
New forecast layout! Learn more

10-Day Weather Forecast

Advertisements
Track Severe Weather on mobile